sensor_id;sensor_type;location;lat;lon;timestamp;temperature;humidity
4725;DHT22;2376;53.544;10.226;2022-08-25T00:01:42;21.00;99.90
4725;DHT22;2376;53.544;10.226;2022-08-25T00:04:12;20.90;99.90
4725;DHT22;2376;53.544;10.226;2022-08-25T00:06:39;20.90;99.90
4725;DHT22;2376;53.544;10.226;2022-08-25T00:09:08;20.90;99.90
4725;DHT22;2376;53.544;10.226;2022-08-25T00:11:37;20.90;99.90
4725;DHT22;2376;53.544;10.226;2022-08-25T00:14:07;20.90;99.90
4725;DHT22;2376;53.544;10.226;2022-08-25T00:16:34;20.80;99.90
4725;DHT22;2376;53.544;10.226;2022-08-25T00:19:05;20.80;99.90
4725;DHT22;2376;53.544;10.226;2022-08-25T00:21:32;20.80;99.90
4725;DHT22;2376;53.544;10.226;2022-08-25T00:24:00;20.80;99.90
4725;DHT22;2376;53.544;10.226;2022-08-25T00:26:29;20.80;99.90
4725;DHT22;2376;53.544;10.226;2022-08-25T00:28:56;20.80;99.90
4725;DHT22;2376;53.544;10.226;2022-08-25T00:31:23;20.80;99.90
4725;DHT22;2376;53.544;10.226;2022-08-25T00:33:51;20.90;99.90
4725;DHT22;2376;53.544;10.226;2022-08-25T00:36:19;20.80;99.90
4725;DHT22;2376;53.544;10.226;2022-08-25T00:38:47;20.60;99.90
4725;DHT22;2376;53.544;10.226;2022-08-25T00:41:17;20.60;99.90
4725;DHT22;2376;53.544;10.226;2022-08-25T00:43:49;20.50;99.90
4725;DHT22;2376;53.544;10.226;2022-08-25T00:46:20;20.30;99.90
4725;DHT22;2376;53.544;10.226;2022-08-25T00:48:51;20.30;99.90
4725;DHT22;2376;53.544;10.226;2022-08-25T00:51:32;20.30;99.90
4725;DHT22;2376;53.544;10.226;2022-08-25T00:54:01;20.30;99.90
4725;DHT22;2376;53.544;10.226;2022-08-25T00:56:28;20.30;99.90
4725;DHT22;2376;53.544;10.226;2022-08-25T00:58:58;20.30;99.90
4725;DHT22;2376;53.544;10.226;2022-08-25T01:01:25;20.40;99.90
4725;DHT22;2376;53.544;10.226;2022-08-25T01:03:53;20.30;99.90
4725;DHT22;2376;53.544;10.226;2022-08-25T01:06:22;20.30;99.90
4725;DHT22;2376;53.544;10.226;2022-08-25T01:08:49;20.30;99.90
4725;DHT22;2376;53.544;10.226;2022-08-25T01:11:17;20.20;99.90
4725;DHT22;2376;53.544;10.226;2022-08-25T01:13:47;20.20;99.90
4725;DHT22;2376;53.544;10.226;2022-08-25T01:16:16;20.10;99.90
4725;DHT22;2376;53.544;10.226;2022-08-25T01:18:47;20.10;99.90
4725;DHT22;2376;53.544;10.226;2022-08-25T01:21:16;20.20;99.90
4725;DHT22;2376;53.544;10.226;2022-08-25T01:23:44;20.20;99.90
4725;DHT22;2376;53.544;10.226;2022-08-25T01:26:13;20.30;99.90
4725;DHT22;2376;53.544;10.226;2022-08-25T01:28:42;20.30;99.90
4725;DHT22;2376;53.544;10.226;2022-08-25T01:31:24;20.40;99.90
4725;DHT22;2376;53.544;10.226;2022-08-25T01:33:51;20.40;99.90
4725;DHT22;2376;53.544;10.226;2022-08-25T01:36:21;20.40;99.90
4725;DHT22;2376;53.544;10.226;2022-08-25T01:38:48;20.40;99.90
4725;DHT22;2376;53.544;10.226;2022-08-25T01:41:16;20.40;99.90
4725;DHT22;2376;53.544;10.226;2022-08-25T01:43:46;20.40;99.90
4725;DHT22;2376;53.544;10.226;2022-08-25T01:46:13;20.30;99.90
4725;DHT22;2376;53.544;10.226;2022-08-25T01:48:39;20.40;99.90
4725;DHT22;2376;53.544;10.226;2022-08-25T01:51:06;20.40;99.90
4725;DHT22;2376;53.544;10.226;2022-08-25T01:53:34;20.30;99.90
4725;DHT22;2376;53.544;10.226;2022-08-25T01:56:07;20.40;99.90
4725;DHT22;2376;53.544;10.226;2022-08-25T01:58:38;20.20;99.90
4725;DHT22;2376;53.544;10.226;2022-08-25T02:01:11;20.20;99.90
4725;DHT22;2376;53.544;10.226;2022-08-25T02:03:45;20.20;99.90
4725;DHT22;2376;53.544;10.226;2022-08-25T02:06:13;20.10;99.90
4725;DHT22;2376;53.544;10.226;2022-08-25T02:08:42;20.00;99.90
4725;DHT22;2376;53.544;10.226;2022-08-25T02:11:10;20.00;99.90
4725;DHT22;2376;53.544;10.226;2022-08-25T02:13:37;20.00;99.90
4725;DHT22;2376;53.544;10.226;2022-08-25T02:16:05;20.00;99.90
4725;DHT22;2376;53.544;10.226;2022-08-25T02:18:32;20.00;99.90
4725;DHT22;2376;53.544;10.226;2022-08-25T02:20:59;19.90;99.90
4725;DHT22;2376;53.544;10.226;2022-08-25T02:23:25;19.90;99.90
4725;DHT22;2376;53.544;10.226;2022-08-25T02:25:54;19.80;99.90
4725;DHT22;2376;53.544;10.226;2022-08-25T02:28:21;19.80;99.90
4725;DHT22;2376;53.544;10.226;2022-08-25T02:30:48;19.80;99.90
4725;DHT22;2376;53.544;10.226;2022-08-25T02:33:17;19.80;99.90
4725;DHT22;2376;53.544;10.226;2022-08-25T02:35:44;19.70;99.90
4725;DHT22;2376;53.544;10.226;2022-08-25T02:38:11;19.70;99.90
4725;DHT22;2376;53.544;10.226;2022-08-25T02:40:37;19.70;99.90
4725;DHT22;2376;53.544;10.226;2022-08-25T02:43:05;19.70;99.90
4725;DHT22;2376;53.544;10.226;2022-08-25T02:45:32;19.60;99.90
4725;DHT22;2376;53.544;10.226;2022-08-25T02:47:59;19.70;99.90
4725;DHT22;2376;53.544;10.226;2022-08-25T02:50:27;19.60;99.90
4725;DHT22;2376;53.544;10.226;2022-08-25T02:52:54;19.70;99.90
4725;DHT22;2376;53.544;10.226;2022-08-25T02:55:21;19.70;99.90
4725;DHT22;2376;53.544;10.226;2022-08-25T02:57:48;19.70;99.90
4725;DHT22;2376;53.544;10.226;2022-08-25T03:00:17;19.80;99.90
4725;DHT22;2376;53.544;10.226;2022-08-25T03:02:44;19.80;99.90
4725;DHT22;2376;53.544;10.226;2022-08-25T03:05:12;19.80;99.90
4725;DHT22;2376;53.544;10.226;2022-08-25T03:07:40;19.80;99.90
4725;DHT22;2376;53.544;10.226;2022-08-25T03:10:09;19.80;99.90
4725;DHT22;2376;53.544;10.226;2022-08-25T03:12:36;19.90;99.90
4725;DHT22;2376;53.544;10.226;2022-08-25T03:15:06;19.80;99.90
4725;DHT22;2376;53.544;10.226;2022-08-25T03:17:34;19.80;99.90
4725;DHT22;2376;53.544;10.226;2022-08-25T03:20:02;19.80;99.90
4725;DHT22;2376;53.544;10.226;2022-08-25T03:22:29;19.80;99.90
4725;DHT22;2376;53.544;10.226;2022-08-25T03:24:56;19.70;99.90
4725;DHT22;2376;53.544;10.226;2022-08-25T03:27:43;19.60;99.90
4725;DHT22;2376;53.544;10.226;2022-08-25T03:30:10;19.60;99.90
4725;DHT22;2376;53.544;10.226;2022-08-25T03:32:38;19.40;99.90
4725;DHT22;2376;53.544;10.226;2022-08-25T03:35:08;19.30;99.90
4725;DHT22;2376;53.544;10.226;2022-08-25T03:37:36;19.30;99.90
4725;DHT22;2376;53.544;10.226;2022-08-25T03:40:05;19.30;99.90
4725;DHT22;2376;53.544;10.226;2022-08-25T03:42:33;19.30;99.90
4725;DHT22;2376;53.544;10.226;2022-08-25T03:45:01;19.40;99.90
4725;DHT22;2376;53.544;10.226;2022-08-25T03:47:27;19.40;99.90
4725;DHT22;2376;53.544;10.226;2022-08-25T03:49:56;19.40;99.90
4725;DHT22;2376;53.544;10.226;2022-08-25T03:52:23;19.40;99.90
4725;DHT22;2376;53.544;10.226;2022-08-25T03:54:50;19.30;99.90
4725;DHT22;2376;53.544;10.226;2022-08-25T03:57:17;19.30;99.90
4725;DHT22;2376;53.544;10.226;2022-08-25T03:59:45;19.20;99.90
4725;DHT22;2376;53.544;10.226;2022-08-25T04:02:11;19.20;99.90
4725;DHT22;2376;53.544;10.226;2022-08-25T04:04:38;19.10;99.90
4725;DHT22;2376;53.544;10.226;2022-08-25T04:07:06;19.10;99.90
4725;DHT22;2376;53.544;10.226;2022-08-25T04:09:36;19.10;99.90
4725;DHT22;2376;53.544;10.226;2022-08-25T04:12:03;18.90;99.90
4725;DHT22;2376;53.544;10.226;2022-08-25T04:14:30;18.70;99.90
4725;DHT22;2376;53.544;10.226;2022-08-25T04:16:57;18.60;99.90
4725;DHT22;2376;53.544;10.226;2022-08-25T04:19:23;18.60;99.90
4725;DHT22;2376;53.544;10.226;2022-08-25T04:21:51;18.70;99.90
4725;DHT22;2376;53.544;10.226;2022-08-25T04:24:20;18.70;99.90
4725;DHT22;2376;53.544;10.226;2022-08-25T04:26:50;18.80;99.90
4725;DHT22;2376;53.544;10.226;2022-08-25T04:29:19;18.80;99.90
4725;DHT22;2376;53.544;10.226;2022-08-25T04:31:46;18.90;99.90
4725;DHT22;2376;53.544;10.226;2022-08-25T04:34:14;18.90;99.90
4725;DHT22;2376;53.544;10.226;2022-08-25T04:36:41;18.90;99.90
4725;DHT22;2376;53.544;10.226;2022-08-25T04:39:08;19.00;99.90
4725;DHT22;2376;53.544;10.226;2022-08-25T04:41:37;18.90;99.90
4725;DHT22;2376;53.544;10.226;2022-08-25T04:44:04;18.90;99.90
4725;DHT22;2376;53.544;10.226;2022-08-25T04:46:32;18.90;99.90
4725;DHT22;2376;53.544;10.226;2022-08-25T04:49:00;18.90;99.90
4725;DHT22;2376;53.544;10.226;2022-08-25T04:51:29;18.80;99.90
4725;DHT22;2376;53.544;10.226;2022-08-25T04:53:58;18.80;99.90
4725;DHT22;2376;53.544;10.226;2022-08-25T04:56:25;18.70;99.90
4725;DHT22;2376;53.544;10.226;2022-08-25T04:58:54;18.60;99.90
4725;DHT22;2376;53.544;10.226;2022-08-25T05:01:24;18.60;99.90
4725;DHT22;2376;53.544;10.226;2022-08-25T05:03:53;18.70;99.90
4725;DHT22;2376;53.544;10.226;2022-08-25T05:06:21;18.70;99.90
4725;DHT22;2376;53.544;10.226;2022-08-25T05:08:47;18.70;99.90
4725;DHT22;2376;53.544;10.226;2022-08-25T05:11:16;18.70;99.90
4725;DHT22;2376;53.544;10.226;2022-08-25T05:13:44;18.70;99.90
4725;DHT22;2376;53.544;10.226;2022-08-25T05:16:13;18.60;99.90
4725;DHT22;2376;53.544;10.226;2022-08-25T05:18:40;18.60;99.90
4725;DHT22;2376;53.544;10.226;2022-08-25T05:21:09;18.50;99.90
4725;DHT22;2376;53.544;10.226;2022-08-25T05:23:36;18.50;99.90
4725;DHT22;2376;53.544;10.226;2022-08-25T05:26:05;18.40;99.90
4725;DHT22;2376;53.544;10.226;2022-08-25T05:28:33;18.30;99.90
4725;DHT22;2376;53.544;10.226;2022-08-25T05:31:01;18.40;99.90
4725;DHT22;2376;53.544;10.226;2022-08-25T05:33:30;18.40;99.90
4725;DHT22;2376;53.544;10.226;2022-08-25T05:35:57;18.50;99.90
4725;DHT22;2376;53.544;10.226;2022-08-25T05:38:25;18.50;99.90
4725;DHT22;2376;53.544;10.226;2022-08-25T05:40:55;18.60;99.90
4725;DHT22;2376;53.544;10.226;2022-08-25T05:43:22;18.70;99.90
4725;DHT22;2376;53.544;10.226;2022-08-25T05:45:52;18.70;99.90
4725;DHT22;2376;53.544;10.226;2022-08-25T05:48:19;18.80;99.90
4725;DHT22;2376;53.544;10.226;2022-08-25T05:50:53;18.80;99.90
4725;DHT22;2376;53.544;10.226;2022-08-25T05:53:21;18.70;99.90
4725;DHT22;2376;53.544;10.226;2022-08-25T05:55:49;18.70;99.90
4725;DHT22;2376;53.544;10.226;2022-08-25T05:58:16;18.90;99.90
4725;DHT22;2376;53.544;10.226;2022-08-25T06:00:43;18.90;99.90
4725;DHT22;2376;53.544;10.226;2022-08-25T06:03:10;18.90;99.90
4725;DHT22;2376;53.544;10.226;2022-08-25T06:05:36;18.90;99.90
4725;DHT22;2376;53.544;10.226;2022-08-25T06:08:04;19.00;99.90
4725;DHT22;2376;53.544;10.226;2022-08-25T06:10:31;19.10;99.90
4725;DHT22;2376;53.544;10.226;2022-08-25T06:12:58;19.10;99.90
4725;DHT22;2376;53.544;10.226;2022-08-25T06:15:26;19.10;99.90
4725;DHT22;2376;53.544;10.226;2022-08-25T06:17:53;19.10;99.90
4725;DHT22;2376;53.544;10.226;2022-08-25T06:20:24;19.20;99.90
4725;DHT22;2376;53.544;10.226;2022-08-25T06:22:52;19.20;99.90
4725;DHT22;2376;53.544;10.226;2022-08-25T06:25:22;19.30;99.90
4725;DHT22;2376;53.544;10.226;2022-08-25T06:27:49;19.20;99.90
4725;DHT22;2376;53.544;10.226;2022-08-25T06:30:19;19.30;99.90
4725;DHT22;2376;53.544;10.226;2022-08-25T06:32:46;19.30;99.90
4725;DHT22;2376;53.544;10.226;2022-08-25T06:35:16;19.40;99.90
4725;DHT22;2376;53.544;10.226;2022-08-25T06:37:44;19.40;99.90
4725;DHT22;2376;53.544;10.226;2022-08-25T06:40:12;19.50;99.90
4725;DHT22;2376;53.544;10.226;2022-08-25T06:42:41;19.40;99.90
4725;DHT22;2376;53.544;10.226;2022-08-25T06:45:08;19.30;99.90
4725;DHT22;2376;53.544;10.226;2022-08-25T06:47:35;19.10;99.90
4725;DHT22;2376;53.544;10.226;2022-08-25T06:50:02;19.10;99.90
4725;DHT22;2376;53.544;10.226;2022-08-25T06:52:30;18.90;99.90
4725;DHT22;2376;53.544;10.226;2022-08-25T06:54:57;18.90;99.90
4725;DHT22;2376;53.544;10.226;2022-08-25T06:57:24;18.90;99.90
4725;DHT22;2376;53.544;10.226;2022-08-25T06:59:52;19.10;99.90
4725;DHT22;2376;53.544;10.226;2022-08-25T07:02:19;19.20;99.90
4725;DHT22;2376;53.544;10.226;2022-08-25T07:04:46;19.30;99.90
4725;DHT22;2376;53.544;10.226;2022-08-25T07:07:12;19.40;99.90
4725;DHT22;2376;53.544;10.226;2022-08-25T07:09:39;19.40;99.90
4725;DHT22;2376;53.544;10.226;2022-08-25T07:12:06;19.40;99.90
4725;DHT22;2376;53.544;10.226;2022-08-25T07:14:33;19.50;99.90
4725;DHT22;2376;53.544;10.226;2022-08-25T07:17:03;19.40;99.90
4725;DHT22;2376;53.544;10.226;2022-08-25T07:19:30;19.40;99.90
4725;DHT22;2376;53.544;10.226;2022-08-25T07:21:56;19.40;99.90
4725;DHT22;2376;53.544;10.226;2022-08-25T07:24:23;19.60;99.90
4725;DHT22;2376;53.544;10.226;2022-08-25T07:26:50;19.60;99.90
4725;DHT22;2376;53.544;10.226;2022-08-25T07:29:20;19.70;99.90
4725;DHT22;2376;53.544;10.226;2022-08-25T07:31:48;19.60;99.90
4725;DHT22;2376;53.544;10.226;2022-08-25T07:34:16;19.50;99.90
4725;DHT22;2376;53.544;10.226;2022-08-25T07:37:00;19.60;99.90
4725;DHT22;2376;53.544;10.226;2022-08-25T07:39:29;19.50;99.90
4725;DHT22;2376;53.544;10.226;2022-08-25T07:41:56;19.50;99.90
4725;DHT22;2376;53.544;10.226;2022-08-25T07:44:23;19.50;99.90
4725;DHT22;2376;53.544;10.226;2022-08-25T07:46:50;19.60;99.90
4725;DHT22;2376;53.544;10.226;2022-08-25T07:49:19;19.50;99.90
4725;DHT22;2376;53.544;10.226;2022-08-25T07:51:47;19.60;99.90
4725;DHT22;2376;53.544;10.226;2022-08-25T07:54:14;19.80;99.90
4725;DHT22;2376;53.544;10.226;2022-08-25T07:56:40;20.00;99.90
4725;DHT22;2376;53.544;10.226;2022-08-25T07:59:08;20.00;99.90
4725;DHT22;2376;53.544;10.226;2022-08-25T08:01:36;19.80;99.90
4725;DHT22;2376;53.544;10.226;2022-08-25T08:04:02;19.60;99.90
4725;DHT22;2376;53.544;10.226;2022-08-25T08:06:31;19.50;99.90
4725;DHT22;2376;53.544;10.226;2022-08-25T08:08:57;19.60;99.90
4725;DHT22;2376;53.544;10.226;2022-08-25T08:11:28;19.60;99.90
4725;DHT22;2376;53.544;10.226;2022-08-25T08:13:56;19.60;99.90
4725;DHT22;2376;53.544;10.226;2022-08-25T08:16:25;19.60;99.90
4725;DHT22;2376;53.544;10.226;2022-08-25T08:18:53;19.70;99.90
4725;DHT22;2376;53.544;10.226;2022-08-25T08:21:23;19.90;99.90
4725;DHT22;2376;53.544;10.226;2022-08-25T08:23:52;20.00;99.90
4725;DHT22;2376;53.544;10.226;2022-08-25T08:26:20;20.00;99.90
4725;DHT22;2376;53.544;10.226;2022-08-25T08:28:48;20.10;99.90
4725;DHT22;2376;53.544;10.226;2022-08-25T08:31:16;20.20;99.90
4725;DHT22;2376;53.544;10.226;2022-08-25T08:33:44;20.20;99.90
4725;DHT22;2376;53.544;10.226;2022-08-25T08:36:11;20.20;99.90
4725;DHT22;2376;53.544;10.226;2022-08-25T08:38:40;20.20;99.90
4725;DHT22;2376;53.544;10.226;2022-08-25T08:41:20;19.90;99.90
4725;DHT22;2376;53.544;10.226;2022-08-25T08:44:18;19.90;99.90
4725;DHT22;2376;53.544;10.226;2022-08-25T08:46:51;19.90;99.90
4725;DHT22;2376;53.544;10.226;2022-08-25T08:49:26;20.10;99.90
4725;DHT22;2376;53.544;10.226;2022-08-25T08:51:58;20.30;99.90
4725;DHT22;2376;53.544;10.226;2022-08-25T08:54:31;20.40;99.90
4725;DHT22;2376;53.544;10.226;2022-08-25T08:57:07;20.50;99.90
4725;DHT22;2376;53.544;10.226;2022-08-25T08:59:40;20.70;99.90
4725;DHT22;2376;53.544;10.226;2022-08-25T09:02:14;20.90;99.90
4725;DHT22;2376;53.544;10.226;2022-08-25T09:04:46;21.10;99.90
4725;DHT22;2376;53.544;10.226;2022-08-25T09:07:18;21.40;99.90
4725;DHT22;2376;53.544;10.226;2022-08-25T09:09:48;21.50;99.90
4725;DHT22;2376;53.544;10.226;2022-08-25T09:12:25;21.80;99.90
4725;DHT22;2376;53.544;10.226;2022-08-25T09:15:03;22.10;99.90
4725;DHT22;2376;53.544;10.226;2022-08-25T09:17:46;22.30;99.90
4725;DHT22;2376;53.544;10.226;2022-08-25T09:20:32;22.30;99.90
4725;DHT22;2376;53.544;10.226;2022-08-25T09:23:09;22.40;99.90
4725;DHT22;2376;53.544;10.226;2022-08-25T09:25:47;22.50;99.90
4725;DHT22;2376;53.544;10.226;2022-08-25T09:28:20;22.60;99.90
4725;DHT22;2376;53.544;10.226;2022-08-25T09:30:53;22.70;99.90
4725;DHT22;2376;53.544;10.226;2022-08-25T09:33:25;22.70;99.90
4725;DHT22;2376;53.544;10.226;2022-08-25T09:35:54;22.80;99.90
4725;DHT22;2376;53.544;10.226;2022-08-25T09:38:21;23.10;99.90
4725;DHT22;2376;53.544;10.226;2022-08-25T09:40:50;23.20;99.90
4725;DHT22;2376;53.544;10.226;2022-08-25T09:43:21;23.40;99.90
4725;DHT22;2376;53.544;10.226;2022-08-25T09:45:54;23.70;99.90
4725;DHT22;2376;53.544;10.226;2022-08-25T09:48:25;23.80;99.90
4725;DHT22;2376;53.544;10.226;2022-08-25T09:50:57;24.10;99.90
4725;DHT22;2376;53.544;10.226;2022-08-25T09:53:25;24.20;99.90
4725;DHT22;2376;53.544;10.226;2022-08-25T09:55:57;24.50;99.90
4725;DHT22;2376;53.544;10.226;2022-08-25T09:58:26;24.70;99.90
4725;DHT22;2376;53.544;10.226;2022-08-25T10:01:13;24.90;99.90
4725;DHT22;2376;53.544;10.226;2022-08-25T10:03:57;25.00;99.90
4725;DHT22;2376;53.544;10.226;2022-08-25T10:06:27;25.00;99.90
4725;DHT22;2376;53.544;10.226;2022-08-25T10:08:57;25.00;99.90
4725;DHT22;2376;53.544;10.226;2022-08-25T10:11:48;24.90;99.90
4725;DHT22;2376;53.544;10.226;2022-08-25T10:14:25;25.00;99.90
4725;DHT22;2376;53.544;10.226;2022-08-25T10:17:11;25.00;99.90
4725;DHT22;2376;53.544;10.226;2022-08-25T10:19:38;25.10;99.90
4725;DHT22;2376;53.544;10.226;2022-08-25T10:22:08;25.20;99.90
4725;DHT22;2376;53.544;10.226;2022-08-25T10:24:37;25.30;99.90
4725;DHT22;2376;53.544;10.226;2022-08-25T10:27:12;25.40;99.90
4725;DHT22;2376;53.544;10.226;2022-08-25T10:30:09;25.50;99.90
4725;DHT22;2376;53.544;10.226;2022-08-25T10:32:58;25.40;99.90
4725;DHT22;2376;53.544;10.226;2022-08-25T10:35:31;25.30;99.90
4725;DHT22;2376;53.544;10.226;2022-08-25T10:38:08;25.40;99.90
4725;DHT22;2376;53.544;10.226;2022-08-25T10:40:42;25.50;99.90
4725;DHT22;2376;53.544;10.226;2022-08-25T10:43:18;25.70;99.90
4725;DHT22;2376;53.544;10.226;2022-08-25T10:45:56;25.70;99.90
4725;DHT22;2376;53.544;10.226;2022-08-25T10:48:46;25.60;99.90
4725;DHT22;2376;53.544;10.226;2022-08-25T10:51:45;25.70;99.90
4725;DHT22;2376;53.544;10.226;2022-08-25T10:54:23;25.70;99.90
4725;DHT22;2376;53.544;10.226;2022-08-25T10:56:59;25.90;99.90
4725;DHT22;2376;53.544;10.226;2022-08-25T10:59:34;25.80;99.90
4725;DHT22;2376;53.544;10.226;2022-08-25T11:02:31;25.90;99.90
4725;DHT22;2376;53.544;10.226;2022-08-25T11:05:06;26.10;99.90
4725;DHT22;2376;53.544;10.226;2022-08-25T11:07:39;26.30;99.90
4725;DHT22;2376;53.544;10.226;2022-08-25T11:10:10;26.30;99.90
4725;DHT22;2376;53.544;10.226;2022-08-25T11:12:42;26.10;99.90
4725;DHT22;2376;53.544;10.226;2022-08-25T11:15:11;26.30;99.90
4725;DHT22;2376;53.544;10.226;2022-08-25T11:17:46;26.40;99.90
4725;DHT22;2376;53.544;10.226;2022-08-25T11:20:17;26.50;99.90
4725;DHT22;2376;53.544;10.226;2022-08-25T11:22:47;26.70;99.90
4725;DHT22;2376;53.544;10.226;2022-08-25T11:25:18;26.90;99.90
4725;DHT22;2376;53.544;10.226;2022-08-25T11:27:51;26.90;99.90
4725;DHT22;2376;53.544;10.226;2022-08-25T11:30:20;26.80;99.90
4725;DHT22;2376;53.544;10.226;2022-08-25T11:32:50;26.90;99.90
4725;DHT22;2376;53.544;10.226;2022-08-25T11:35:26;27.10;99.90
4725;DHT22;2376;53.544;10.226;2022-08-25T11:38:06;27.20;99.90
4725;DHT22;2376;53.544;10.226;2022-08-25T11:40:58;27.20;99.90
4725;DHT22;2376;53.544;10.226;2022-08-25T11:43:47;27.00;99.90
4725;DHT22;2376;53.544;10.226;2022-08-25T11:46:26;26.60;99.90
4725;DHT22;2376;53.544;10.226;2022-08-25T11:49:07;26.70;99.90
4725;DHT22;2376;53.544;10.226;2022-08-25T11:51:42;26.80;99.90
4725;DHT22;2376;53.544;10.226;2022-08-25T11:54:19;26.90;99.90
4725;DHT22;2376;53.544;10.226;2022-08-25T11:56:55;27.10;99.90
4725;DHT22;2376;53.544;10.226;2022-08-25T12:00:09;27.10;99.90
4725;DHT22;2376;53.544;10.226;2022-08-25T12:02:40;27.10;99.90
4725;DHT22;2376;53.544;10.226;2022-08-25T12:05:11;27.30;99.90
4725;DHT22;2376;53.544;10.226;2022-08-25T12:08:03;27.30;99.90
4725;DHT22;2376;53.544;10.226;2022-08-25T12:10:57;27.40;99.90
4725;DHT22;2376;53.544;10.226;2022-08-25T12:13:37;27.70;99.90
4725;DHT22;2376;53.544;10.226;2022-08-25T12:16:04;28.00;99.90
4725;DHT22;2376;53.544;10.226;2022-08-25T12:18:43;28.20;99.90
4725;DHT22;2376;53.544;10.226;2022-08-25T12:21:13;28.50;99.90
4725;DHT22;2376;53.544;10.226;2022-08-25T12:23:43;28.50;99.90
4725;DHT22;2376;53.544;10.226;2022-08-25T12:26:19;28.60;99.90
4725;DHT22;2376;53.544;10.226;2022-08-25T12:29:04;28.60;99.90
4725;DHT22;2376;53.544;10.226;2022-08-25T12:31:53;28.50;98.10
4725;DHT22;2376;53.544;10.226;2022-08-25T12:34:37;28.40;99.70
4725;DHT22;2376;53.544;10.226;2022-08-25T12:37:11;28.30;99.90
4725;DHT22;2376;53.544;10.226;2022-08-25T12:39:45;27.80;99.60
4725;DHT22;2376;53.544;10.226;2022-08-25T12:42:24;27.60;99.50
4725;DHT22;2376;53.544;10.226;2022-08-25T12:45:10;27.50;99.60
4725;DHT22;2376;53.544;10.226;2022-08-25T12:47:39;27.40;99.90
4725;DHT22;2376;53.544;10.226;2022-08-25T12:50:34;27.60;99.90
4725;DHT22;2376;53.544;10.226;2022-08-25T12:53:11;27.80;99.10
4725;DHT22;2376;53.544;10.226;2022-08-25T12:55:45;27.80;99.70
4725;DHT22;2376;53.544;10.226;2022-08-25T12:58:13;27.80;98.90
4725;DHT22;2376;53.544;10.226;2022-08-25T13:01:01;27.60;98.70
4725;DHT22;2376;53.544;10.226;2022-08-25T13:06:44;27.50;99.90
4725;DHT22;2376;53.544;10.226;2022-08-25T13:09:53;27.60;99.80
4725;DHT22;2376;53.544;10.226;2022-08-25T13:12:30;27.60;99.90
4725;DHT22;2376;53.544;10.226;2022-08-25T13:14:59;27.70;99.90
4725;DHT22;2376;53.544;10.226;2022-08-25T13:17:27;27.80;99.90
4725;DHT22;2376;53.544;10.226;2022-08-25T13:20:10;28.00;99.90
4725;DHT22;2376;53.544;10.226;2022-08-25T13:22:37;28.10;99.30
4725;DHT22;2376;53.544;10.226;2022-08-25T13:25:05;28.20;98.50
4725;DHT22;2376;53.544;10.226;2022-08-25T13:27:35;28.10;98.00
4725;DHT22;2376;53.544;10.226;2022-08-25T13:30:03;27.90;97.00
4725;DHT22;2376;53.544;10.226;2022-08-25T13:32:32;27.80;98.00
4725;DHT22;2376;53.544;10.226;2022-08-25T13:35:09;27.90;97.80
4725;DHT22;2376;53.544;10.226;2022-08-25T13:37:37;27.90;96.40
4725;DHT22;2376;53.544;10.226;2022-08-25T13:40:10;27.80;95.80
4725;DHT22;2376;53.544;10.226;2022-08-25T13:42:39;27.80;97.00
4725;DHT22;2376;53.544;10.226;2022-08-25T13:45:07;27.90;98.30
4725;DHT22;2376;53.544;10.226;2022-08-25T13:47:36;28.00;97.60
4725;DHT22;2376;53.544;10.226;2022-08-25T13:50:17;28.00;97.20
4725;DHT22;2376;53.544;10.226;2022-08-25T13:52:47;28.00;96.70
4725;DHT22;2376;53.544;10.226;2022-08-25T13:55:20;28.20;95.80
4725;DHT22;2376;53.544;10.226;2022-08-25T13:57:48;28.40;96.20
4725;DHT22;2376;53.544;10.226;2022-08-25T14:00:26;28.40;95.80
4725;DHT22;2376;53.544;10.226;2022-08-25T14:02:53;28.60;96.50
4725;DHT22;2376;53.544;10.226;2022-08-25T14:05:32;28.60;96.00
4725;DHT22;2376;53.544;10.226;2022-08-25T14:07:59;28.50;94.60
4725;DHT22;2376;53.544;10.226;2022-08-25T14:10:34;28.40;95.00
4725;DHT22;2376;53.544;10.226;2022-08-25T14:13:28;28.30;94.40
4725;DHT22;2376;53.544;10.226;2022-08-25T14:16:06;28.00;94.80
4725;DHT22;2376;53.544;10.226;2022-08-25T14:18:33;27.80;94.80
4725;DHT22;2376;53.544;10.226;2022-08-25T14:21:07;27.80;96.20
4725;DHT22;2376;53.544;10.226;2022-08-25T14:23:34;27.70;95.90
4725;DHT22;2376;53.544;10.226;2022-08-25T14:26:02;27.70;95.90
4725;DHT22;2376;53.544;10.226;2022-08-25T14:28:30;27.70;96.80
4725;DHT22;2376;53.544;10.226;2022-08-25T14:31:00;27.80;96.50
4725;DHT22;2376;53.544;10.226;2022-08-25T14:33:29;27.80;96.20
4725;DHT22;2376;53.544;10.226;2022-08-25T14:35:58;28.00;96.30
4725;DHT22;2376;53.544;10.226;2022-08-25T14:38:27;28.20;95.90
4725;DHT22;2376;53.544;10.226;2022-08-25T14:40:54;28.20;95.40
4725;DHT22;2376;53.544;10.226;2022-08-25T14:43:21;28.20;95.10
4725;DHT22;2376;53.544;10.226;2022-08-25T14:45:49;28.20;95.20
4725;DHT22;2376;53.544;10.226;2022-08-25T14:48:22;28.20;94.90
4725;DHT22;2376;53.544;10.226;2022-08-25T14:50:51;28.20;95.50
4725;DHT22;2376;53.544;10.226;2022-08-25T14:53:18;28.10;95.30
4725;DHT22;2376;53.544;10.226;2022-08-25T14:55:45;28.00;95.40
4725;DHT22;2376;53.544;10.226;2022-08-25T14:58:13;28.00;95.60
4725;DHT22;2376;53.544;10.226;2022-08-25T15:00:43;27.90;95.50
4725;DHT22;2376;53.544;10.226;2022-08-25T15:03:14;28.00;95.70
4725;DHT22;2376;53.544;10.226;2022-08-25T15:05:41;27.90;95.00
4725;DHT22;2376;53.544;10.226;2022-08-25T15:08:09;27.80;95.10
4725;DHT22;2376;53.544;10.226;2022-08-25T15:10:54;27.70;95.50
4725;DHT22;2376;53.544;10.226;2022-08-25T15:13:22;27.70;96.30
4725;DHT22;2376;53.544;10.226;2022-08-25T15:15:51;27.80;96.10
4725;DHT22;2376;53.544;10.226;2022-08-25T15:18:20;27.70;96.20
4725;DHT22;2376;53.544;10.226;2022-08-25T15:20:48;27.70;96.10
4725;DHT22;2376;53.544;10.226;2022-08-25T15:23:15;27.70;96.00
4725;DHT22;2376;53.544;10.226;2022-08-25T15:25:45;27.70;95.80
4725;DHT22;2376;53.544;10.226;2022-08-25T15:28:15;27.80;96.30
4725;DHT22;2376;53.544;10.226;2022-08-25T15:30:42;27.90;95.60
4725;DHT22;2376;53.544;10.226;2022-08-25T15:33:08;27.90;95.80
4725;DHT22;2376;53.544;10.226;2022-08-25T15:35:36;27.90;96.20
4725;DHT22;2376;53.544;10.226;2022-08-25T15:38:03;27.90;96.00
4725;DHT22;2376;53.544;10.226;2022-08-25T15:40:30;27.90;96.30
4725;DHT22;2376;53.544;10.226;2022-08-25T15:42:57;28.00;96.30
4725;DHT22;2376;53.544;10.226;2022-08-25T15:45:24;28.00;95.40
4725;DHT22;2376;53.544;10.226;2022-08-25T15:47:50;28.00;95.20
4725;DHT22;2376;53.544;10.226;2022-08-25T15:50:19;28.00;95.60
4725;DHT22;2376;53.544;10.226;2022-08-25T15:52:48;28.00;94.60
4725;DHT22;2376;53.544;10.226;2022-08-25T15:55:16;28.00;94.50
4725;DHT22;2376;53.544;10.226;2022-08-25T15:57:43;27.90;94.90
4725;DHT22;2376;53.544;10.226;2022-08-25T16:00:11;27.90;95.20
4725;DHT22;2376;53.544;10.226;2022-08-25T16:02:38;27.80;94.90
4725;DHT22;2376;53.544;10.226;2022-08-25T16:05:06;27.70;95.00
4725;DHT22;2376;53.544;10.226;2022-08-25T16:07:33;27.60;95.60
4725;DHT22;2376;53.544;10.226;2022-08-25T16:10:02;27.60;95.70
4725;DHT22;2376;53.544;10.226;2022-08-25T16:12:29;27.60;97.20